AirNav   Everest Fuels
 
 1050 users online  

98CO NCMC Heliport
Greeley, Colorado, USA

GOING TO GREELEY?


FAA INFORMATION EFFECTIVE 08 SEPTEMBER 2022

Location

FAA Identifier: 98CO
Lat/Long: 40-24-53.4500N 104-42-39.0500W
40-24.890833N 104-42.650833W
40.4148472,-104.7108472
(estimated)
Elevation: 4882 ft. / 1488 m (estimated)
Variation: 12E (1985)
Time zone: UTC -6 (UTC -7 during Standard Time)
Zip code: 80631

Heliport Operations

Heliport use: Private use, MEDICAL USE.
Activation date: 01/1987
Control tower: no
ARTCC: DENVER CENTER
FSS: DENVER FLIGHT SERVICE STATION
Attendance: UNATNDD
Wind indicator: yes
Segmented circle: no

Heliport Communications

WX AWOS-3PT at GXY (4 nm E): 135.175 (970-352-3511)
WX AWOS-3PT at FNL (14 nm W): 135.075 (970-669-9187)

Nearby radio navigation aids

VOR radial/distance  VOR name  Freq  Var
GLLr220/9.0GILL VOR/DME114.2013E
DVVr345/31.5MILE HIGH VORTAC114.7008E
BJCr022/35.9JEFFCO VOR/DME115.4011E
DENr348/36.2DENVER VOR/DME117.9008E

Heliport Services

Runway Information

Helipad H1

Dimensions: 40 x 40 ft. / 12 x 12 m
Surface: concrete
Latitude: 40-24.890833N
Longitude: 104-42.650833W
Elevation: 4882.0 ft.
Traffic pattern: leftleft

Heliport Ownership and Management from official FAA records

Ownership: Publicly-owned
Owner: NORTH COLORADO MEDICAL CENTER
1801 16TH STREET
GREELEY, CO 80631
Phone (970) 810-4121
Manager: PAMELA HOWES
1801 16TH STREET
GREELEY, CO 80631
Phone (970) 810-6959

Heliport Operational Statistics

Aircraft based on the field: 1
Helicopters: 1
    

Additional Remarks

A52-H1 40' PLINE 200' SOUTH 20' BLDG 40' NORTH.
FOR CD CTC DENVER APCH AT 303-342-1916.

Instrument Procedures

There are no published instrument procedures at 98CO.

Some nearby airports with instrument procedures:

KGXY - Greeley-Weld County Airport (4 nm E)
KFNL - Northern Colorado Regional Airport (14 nm W)
KLMO - Vance Brand Airport (26 nm SW)
KEIK - Erie Municipal Airport (29 nm SW)
KDEN - Denver International Airport (33 nm S)
 
Loc | Ops | Rwys | IFR | FBO | Links
Com | Nav | Svcs | Stats | Notes

AirBoss

 
Area around 98CO (NCMC Heliport)
 
Road maps at: MapQuest Bing Google
 
Aerial photo
No photo
 
Sectional chart

 
Airport distance calculator
Flying to NCMC Heliport? Find the distance to fly.

From to 98CO

Sunrise and sunset
Times for 24-Sep-2022
 Local
(UTC-6)
 Zulu
(UTC)
Morning civil twilight06:2212:22
Sunrise06:4912:49
Sunset18:5200:52
Evening civil twilight19:2001:20

Current date and time
Zulu (UTC)  25-Sep-2022 00:29:16
Local (UTC-6)  24-Sep-2022 18:29:16
 
METAR
KGXY 
4nm E 
242356Z 15004KT 10SM CLR 27/03 A3015 RMK AO2 SLP185 T02720028 10289 20222 55002 $
KFNL 
14nm W 
242356Z 16004KT 10SM CLR 26/00 A3018 RMK AO2 SLP174 T02610000 10278 20233 53001
TAF
KDEN 
35nm S 
242032Z 2421/2524 01009KT P6SM FEW100 FEW220 FM242230 04010KT P6SM FEW100 FEW220 FM250000 09006KT P6SM FEW220 FM250600 01006KT P6SM FEW220 FM251000 20006KT P6SM SKC FM251700 02007KT P6SM SKC FM252000 07007KT P6SM FEW120
KBJC 
35nm SW 
241740Z 2418/2518 VRB03KT P6SM SKC FM241900 07007KT P6SM SKC FM250500 35005KT P6SM SKC
KBKF 
42nm S 
241700Z 2417/2523 VRB06KT 9999 SKC 510023 QNH3021INS TX24/2422Z TN07/2512Z
NOTAMs
Click for the latest NOTAMs
NOTAMs are issued by the DoD/FAA and will open in a separate window not controlled by AirNav.

 

 
 

Would you like to see your business listed on this page?

 If your business provides an interesting product or service to pilots, flight crews, aircraft, or users of the NCMC Heliport, you should consider listing it here.  To start the listing process, click on the button below
 
Add a business
 

Other Pages about NCMC Heliport

Update a link
 
Copyright © AirNav, LLC. All rights reserved. Privacy Policy  Contact